createdAt,value
2022-10-18T00:00:00.985Z,86.72
2022-10-18T00:02:29.674Z,86.42
2022-10-18T00:04:58.053Z,86.38
2022-10-18T00:07:28.193Z,85.90
2022-10-18T00:09:56.995Z,85.91
2022-10-18T00:12:25.495Z,85.50
2022-10-18T00:14:54.138Z,85.90
2022-10-18T00:17:22.511Z,85.66
2022-10-18T00:19:51.178Z,85.57
2022-10-18T00:22:19.652Z,85.75
2022-10-18T00:24:49.749Z,85.89
2022-10-18T00:27:19.075Z,85.44
2022-10-18T00:29:47.586Z,85.52
2022-10-18T00:32:15.986Z,85.44
2022-10-18T00:34:44.319Z,85.34
2022-10-18T00:37:12.838Z,85.33
2022-10-18T00:39:41.586Z,85.39
2022-10-18T00:42:13.545Z,85.08
2022-10-18T00:45:04.563Z,85.01
2022-10-18T00:47:33.455Z,85.00
2022-10-18T00:50:04.920Z,85.33
2022-10-18T00:52:36.417Z,85.59
2022-10-18T00:55:06.359Z,85.21
2022-10-18T00:57:36.425Z,85.53
2022-10-18T01:00:09.882Z,85.53
2022-10-18T01:02:38.543Z,85.24
2022-10-18T01:05:08.369Z,85.49
2022-10-18T01:07:51.618Z,85.36
2022-10-18T01:10:28.435Z,85.30
2022-10-18T01:13:09.849Z,85.63
2022-10-18T01:15:43.036Z,85.73
2022-10-18T01:18:27.891Z,85.66
2022-10-18T01:21:10.895Z,85.86
2022-10-18T01:24:01.444Z,85.45
2022-10-18T01:26:41.389Z,85.48
2022-10-18T01:29:18.813Z,85.68
2022-10-18T01:31:49.605Z,85.68
2022-10-18T01:34:19.565Z,85.47
2022-10-18T01:36:49.564Z,85.25
2022-10-18T01:39:22.130Z,85.10
2022-10-18T01:41:52.336Z,85.32
2022-10-18T01:44:23.372Z,85.15
2022-10-18T01:46:54.446Z,84.84
2022-10-18T01:49:22.926Z,85.13
2022-10-18T01:51:51.399Z,85.22
2022-10-18T01:54:28.457Z,85.17
2022-10-18T01:57:00.174Z,85.00
2022-10-18T01:59:36.737Z,85.12
2022-10-18T02:02:11.268Z,85.28
2022-10-18T02:04:46.480Z,84.86
2022-10-18T02:07:21.308Z,85.00
2022-10-18T02:09:54.205Z,85.25
2022-10-18T02:12:23.199Z,84.90
2022-10-18T02:14:52.326Z,84.95
2022-10-18T02:17:22.717Z,84.86
2022-10-18T02:19:52.513Z,84.68
2022-10-18T02:22:22.110Z,84.79
2022-10-18T02:24:53.527Z,85.00
2022-10-18T02:27:22.171Z,84.94
2022-10-18T02:29:50.952Z,84.98
2022-10-18T02:32:24.437Z,84.95
2022-10-18T02:34:58.752Z,85.18
2022-10-18T02:37:31.468Z,85.29
2022-10-18T02:39:59.981Z,85.25
2022-10-18T02:42:35.061Z,85.12
2022-10-18T02:45:03.545Z,84.84
2022-10-18T02:47:33.649Z,85.13
2022-10-18T02:50:02.169Z,85.10
2022-10-18T02:52:32.126Z,84.53
2022-10-18T02:55:01.419Z,85.09
2022-10-18T02:57:32.240Z,84.84
2022-10-18T03:00:00.850Z,84.82
2022-10-18T03:02:29.408Z,84.85
2022-10-18T03:04:59.192Z,84.62
2022-10-18T03:07:27.637Z,84.44
2022-10-18T03:09:56.002Z,84.89
2022-10-18T03:12:24.342Z,84.84
2022-10-18T03:14:52.707Z,84.73
2022-10-18T03:17:21.091Z,84.70
2022-10-18T03:19:49.534Z,84.65
2022-10-18T03:22:19.370Z,84.61
2022-10-18T03:24:47.883Z,84.44
2022-10-18T03:27:16.254Z,84.43
2022-10-18T03:29:44.696Z,84.48
2022-10-18T03:32:13.150Z,84.42
2022-10-18T03:34:41.530Z,84.34
2022-10-18T03:37:09.929Z,84.59
2022-10-18T03:39:39.674Z,84.27
2022-10-18T03:42:08.001Z,84.93
2022-10-18T03:44:36.357Z,85.28
2022-10-18T03:47:04.744Z,85.02
2022-10-18T03:52:02.390Z,85.07
2022-10-18T03:54:30.728Z,85.21
2022-10-18T03:57:00.590Z,85.15
2022-10-18T03:59:29.226Z,85.48
2022-10-18T04:01:57.603Z,85.50
2022-10-18T04:04:26.166Z,85.42
2022-10-18T04:06:54.680Z,85.34
2022-10-18T04:09:23.132Z,84.84
2022-10-18T04:11:51.877Z,85.25
2022-10-18T04:14:22.300Z,84.63
2022-10-18T04:16:50.650Z,84.68
2022-10-18T04:19:19.033Z,84.63
2022-10-18T04:21:47.502Z,84.54
2022-10-18T04:24:18.132Z,84.35
2022-10-18T04:26:49.184Z,84.11
2022-10-18T04:29:17.687Z,84.15
2022-10-18T04:31:47.814Z,84.14
2022-10-18T04:34:16.193Z,84.02
2022-10-18T04:36:44.830Z,83.77
2022-10-18T04:39:13.406Z,83.32
2022-10-18T04:41:41.938Z,83.57
2022-10-18T04:44:10.583Z,83.78
2022-10-18T04:46:39.024Z,83.59
2022-10-18T04:49:11.437Z,83.77
2022-10-18T04:51:39.951Z,83.52
2022-10-18T04:54:08.357Z,83.62
2022-10-18T04:56:36.811Z,83.63
2022-10-18T04:59:05.508Z,83.53
2022-10-18T05:01:33.989Z,83.04
2022-10-18T05:04:02.485Z,83.15
2022-10-18T05:06:32.260Z,83.25
2022-10-18T05:09:00.628Z,83.04
2022-10-18T05:11:29.032Z,82.87
2022-10-18T05:13:57.406Z,83.18
2022-10-18T05:16:25.839Z,83.22
2022-10-18T05:18:54.185Z,82.95
2022-10-18T05:21:22.612Z,82.83
2022-10-18T05:23:52.503Z,82.66
2022-10-18T05:26:20.861Z,82.46
2022-10-18T05:28:50.702Z,82.54
2022-10-18T05:31:19.496Z,82.33
2022-10-18T05:33:47.967Z,81.90
2022-10-18T05:36:16.396Z,81.96
2022-10-18T05:38:45.695Z,82.04
2022-10-18T05:41:15.722Z,81.65
2022-10-18T05:43:44.113Z,81.87
2022-10-18T05:46:15.401Z,81.63
2022-10-18T05:48:45.111Z,82.23
2022-10-18T05:51:13.615Z,81.96
2022-10-18T05:53:42.119Z,82.16
2022-10-18T05:56:12.068Z,82.45
2022-10-18T05:58:42.242Z,82.04
2022-10-18T06:01:11.839Z,82.34
2022-10-18T06:03:41.339Z,82.00
2022-10-18T06:06:11.803Z,82.20
2022-10-18T06:08:41.488Z,82.44
2022-10-18T06:11:11.196Z,82.56
2022-10-18T06:13:43.410Z,82.62
2022-10-18T06:16:12.612Z,82.52
2022-10-18T06:18:41.144Z,82.81
2022-10-18T06:21:09.761Z,83.07
2022-10-18T06:23:38.243Z,83.41
2022-10-18T06:26:09.485Z,82.75
2022-10-18T06:28:38.836Z,83.33
2022-10-18T06:31:08.712Z,83.46
2022-10-18T06:33:37.520Z,83.30
2022-10-18T06:36:07.515Z,83.76
2022-10-18T06:38:36.528Z,84.34
2022-10-18T06:41:05.906Z,84.49
2022-10-18T06:43:34.564Z,84.63
2022-10-18T06:46:07.931Z,85.14
2022-10-18T06:48:38.283Z,84.97
2022-10-18T06:51:07.946Z,85.61
2022-10-18T06:53:43.952Z,86.06
2022-10-18T06:56:21.789Z,86.19
2022-10-18T06:58:50.329Z,86.64
2022-10-18T07:01:19.596Z,86.97
2022-10-18T07:03:50.493Z,86.85
2022-10-18T07:06:19.826Z,87.65
2022-10-18T07:08:49.229Z,87.55
2022-10-18T07:11:19.270Z,87.88
2022-10-18T07:13:48.331Z,88.19
2022-10-18T07:16:18.829Z,88.33
2022-10-18T07:18:50.619Z,88.68
2022-10-18T07:21:20.821Z,88.54
2022-10-18T07:23:49.640Z,88.33
2022-10-18T07:26:20.217Z,88.10
2022-10-18T07:28:50.267Z,88.86
2022-10-18T07:31:19.340Z,89.09
2022-10-18T07:33:49.113Z,89.01
2022-10-18T07:36:17.741Z,89.08
2022-10-18T07:38:46.183Z,89.46
2022-10-18T07:41:15.227Z,88.89
2022-10-18T07:43:44.662Z,89.07
2022-10-18T07:46:13.380Z,89.21
2022-10-18T07:48:42.240Z,89.33
2022-10-18T07:51:12.402Z,89.86
2022-10-18T07:53:40.930Z,90.51
2022-10-18T07:56:16.017Z,90.38
2022-10-18T07:58:44.684Z,90.69
2022-10-18T08:01:13.584Z,90.69
2022-10-18T08:03:45.606Z,90.64
2022-10-18T08:06:18.187Z,90.64
2022-10-18T08:08:47.224Z,90.75
2022-10-18T08:11:17.504Z,90.58
2022-10-18T08:13:45.985Z,90.13
2022-10-18T08:16:20.277Z,89.89
2022-10-18T08:18:48.868Z,90.24
2022-10-18T08:21:21.487Z,89.93
2022-10-18T08:23:53.967Z,89.91
2022-10-18T08:26:24.560Z,90.62
2022-10-18T08:29:10.297Z,90.75
2022-10-18T08:31:42.910Z,90.71
2022-10-18T08:34:17.281Z,90.42
2022-10-18T08:36:49.682Z,90.82
2022-10-18T08:39:18.098Z,91.82
2022-10-18T08:42:24.734Z,91.71
2022-10-18T08:44:54.010Z,92.13
2022-10-18T08:47:24.079Z,92.65
2022-10-18T08:49:54.481Z,92.76
2022-10-18T08:52:32.344Z,93.01
2022-10-18T08:55:04.281Z,92.90
2022-10-18T08:57:35.371Z,92.83
2022-10-18T09:00:07.653Z,92.89
2022-10-18T09:02:43.613Z,92.75
2022-10-18T09:05:22.261Z,92.60
2022-10-18T09:08:22.354Z,93.24
2022-10-18T09:10:59.975Z,93.38
2022-10-18T09:13:47.149Z,92.99
2022-10-18T09:16:17.730Z,93.19
2022-10-18T09:18:57.493Z,93.29
2022-10-18T09:21:43.962Z,92.84
2022-10-18T09:24:15.503Z,93.15
2022-10-18T09:26:46.624Z,93.18
2022-10-18T09:29:30.191Z,93.30
2022-10-18T09:32:04.843Z,93.00
2022-10-18T09:34:33.549Z,93.05
2022-10-18T09:37:02.532Z,93.01
2022-10-18T09:39:34.255Z,92.83
2022-10-18T09:42:06.290Z,92.81
2022-10-18T09:44:37.593Z,92.50
2022-10-18T09:47:16.535Z,92.64
2022-10-18T09:49:47.814Z,92.38
2022-10-18T09:52:19.989Z,92.40
2022-10-18T09:54:55.520Z,92.25
2022-10-18T09:57:27.726Z,92.37
2022-10-18T09:59:56.158Z,92.24
2022-10-18T10:02:25.573Z,92.34
2022-10-18T10:04:55.859Z,91.83
2022-10-18T10:07:29.939Z,92.27
2022-10-18T10:10:07.873Z,92.59
2022-10-18T10:12:39.900Z,92.63
2022-10-18T10:15:10.294Z,92.67
2022-10-18T10:17:39.021Z,92.91
2022-10-18T10:20:17.207Z,92.39
2022-10-18T10:22:46.950Z,92.18
2022-10-18T10:25:24.947Z,92.50
2022-10-18T10:27:53.492Z,92.28
2022-10-18T10:30:28.312Z,92.98
2022-10-18T10:32:57.655Z,92.58
2022-10-18T10:38:27.360Z,92.72
2022-10-18T10:40:57.343Z,92.23
2022-10-18T10:43:43.300Z,92.72
2022-10-18T10:46:13.295Z,92.52
2022-10-18T10:48:47.478Z,92.98
2022-10-18T10:51:17.775Z,93.07
2022-10-18T10:53:52.187Z,93.63
2022-10-18T10:56:29.862Z,93.10
2022-10-18T10:59:01.714Z,94.03
2022-10-18T11:01:32.687Z,93.57
2022-10-18T11:04:03.540Z,93.83
2022-10-18T11:06:40.984Z,93.77
2022-10-18T11:09:17.844Z,94.31
2022-10-18T11:11:57.511Z,94.72
2022-10-18T11:14:27.704Z,94.62
2022-10-18T11:17:05.638Z,94.87
2022-10-18T11:19:40.461Z,94.43
2022-10-18T11:22:14.294Z,94.52
2022-10-18T11:24:42.667Z,94.42
2022-10-18T11:27:16.526Z,94.97
2022-10-18T11:29:56.743Z,94.67
2022-10-18T11:32:32.260Z,95.09
2022-10-18T11:35:09.936Z,95.08
2022-10-18T11:37:52.751Z,95.06
2022-10-18T11:40:33.721Z,94.78
2022-10-18T11:43:08.668Z,94.84
2022-10-18T11:45:42.675Z,95.36
2022-10-18T11:48:33.818Z,94.67
2022-10-18T11:51:06.338Z,95.14
2022-10-18T11:53:40.814Z,94.77
2022-10-18T11:56:15.078Z,94.60
2022-10-18T11:58:52.696Z,94.83
2022-10-18T12:01:28.451Z,94.84
2022-10-18T12:04:03.781Z,94.51
2022-10-18T12:06:36.227Z,94.75
2022-10-18T12:09:09.064Z,94.68
2022-10-18T12:11:44.073Z,94.75
2022-10-18T12:14:24.632Z,94.67
2022-10-18T12:17:07.621Z,94.71
2022-10-18T12:19:42.951Z,94.82
2022-10-18T12:22:16.364Z,94.87
2022-10-18T12:25:06.602Z,94.79
2022-10-18T12:30:39.999Z,95.11
2022-10-18T12:33:27.644Z,94.94
2022-10-18T12:36:03.566Z,94.74
2022-10-18T12:38:33.452Z,95.29
2022-10-18T12:41:02.078Z,95.35
2022-10-18T12:43:36.700Z,95.48
2022-10-18T12:46:12.175Z,95.50
2022-10-18T12:48:43.886Z,95.45
2022-10-18T12:51:16.195Z,95.47
2022-10-18T12:53:46.231Z,95.69
2022-10-18T12:56:38.263Z,95.76
2022-10-18T12:59:45.238Z,95.39
2022-10-18T13:02:36.054Z,95.66
2022-10-18T13:05:53.361Z,95.25
2022-10-18T13:08:42.209Z,94.94
2022-10-18T13:11:43.076Z,94.52
2022-10-18T13:14:53.431Z,94.13
2022-10-18T13:17:37.612Z,93.64
2022-10-18T13:20:27.087Z,93.25
2022-10-18T13:23:06.489Z,93.07
2022-10-18T13:25:38.096Z,92.87
2022-10-18T13:28:19.372Z,91.87
2022-10-18T13:30:53.190Z,91.25
2022-10-18T13:33:39.079Z,90.37
2022-10-18T13:36:14.404Z,90.25
2022-10-18T13:38:48.900Z,89.95
2022-10-18T13:41:19.522Z,89.48
2022-10-18T13:43:59.681Z,88.83
2022-10-18T13:47:05.531Z,87.93
2022-10-18T13:49:43.810Z,87.65
2022-10-18T13:52:18.269Z,87.13
2022-10-18T13:54:58.383Z,86.50
2022-10-18T13:57:37.235Z,85.69
2022-10-18T14:00:17.594Z,85.72
2022-10-18T14:03:00.214Z,85.60
2022-10-18T14:05:43.900Z,85.11
2022-10-18T14:08:15.737Z,85.03
2022-10-18T14:11:01.326Z,85.00
2022-10-18T14:13:35.891Z,85.12
2022-10-18T14:16:08.141Z,85.04
2022-10-18T14:18:38.334Z,84.42
2022-10-18T14:21:15.402Z,84.42
2022-10-18T14:23:46.658Z,84.33
2022-10-18T14:26:16.861Z,84.37
2022-10-18T14:28:59.545Z,84.25
2022-10-18T14:31:29.134Z,84.79
2022-10-18T14:33:59.052Z,84.89
2022-10-18T14:36:31.591Z,84.67
2022-10-18T14:39:01.182Z,84.64
2022-10-18T14:41:31.099Z,85.28
2022-10-18T14:44:18.681Z,84.52
2022-10-18T14:46:48.452Z,84.38
2022-10-18T14:49:17.792Z,84.40
2022-10-18T14:51:50.804Z,84.61
2022-10-18T14:54:22.342Z,83.86
2022-10-18T14:56:52.683Z,84.42
2022-10-18T14:59:23.321Z,84.17
2022-10-18T15:01:57.560Z,83.53
2022-10-18T15:04:31.261Z,83.28
2022-10-18T15:07:01.729Z,83.62
2022-10-18T15:09:31.021Z,83.54
2022-10-18T15:12:00.820Z,83.40
2022-10-18T15:14:29.821Z,83.74
2022-10-18T15:17:01.794Z,83.68
2022-10-18T15:19:33.825Z,83.44
2022-10-18T15:22:31.394Z,83.82
2022-10-18T15:25:14.674Z,83.48
2022-10-18T15:27:45.514Z,83.35
2022-10-18T15:30:21.367Z,83.70
2022-10-18T15:32:51.749Z,82.65
2022-10-18T15:35:26.353Z,81.99
2022-10-18T15:37:57.642Z,82.30
2022-10-18T15:40:38.722Z,82.08
2022-10-18T15:43:38.321Z,82.57
2022-10-18T15:46:07.589Z,82.47
2022-10-18T15:48:38.182Z,81.12
2022-10-18T15:51:07.719Z,81.08
2022-10-18T15:53:46.742Z,81.54
2022-10-18T15:56:29.011Z,81.76
2022-10-18T15:59:00.005Z,81.77
2022-10-18T16:01:34.556Z,80.73
2022-10-18T16:04:02.841Z,81.35
2022-10-18T16:06:32.532Z,81.25
2022-10-18T16:09:02.029Z,81.95
2022-10-18T16:11:30.966Z,81.58
2022-10-18T16:14:00.884Z,81.41
2022-10-18T16:16:30.809Z,81.55
2022-10-18T16:18:59.473Z,81.88
2022-10-18T16:21:29.719Z,81.97
2022-10-18T16:23:58.337Z,81.50
2022-10-18T16:26:28.004Z,81.58
2022-10-18T16:28:57.433Z,81.18
2022-10-18T16:31:29.069Z,81.45
2022-10-18T16:33:57.750Z,81.33
2022-10-18T16:36:29.210Z,80.91
2022-10-18T16:39:02.011Z,80.80
2022-10-18T16:41:30.482Z,80.66
2022-10-18T16:43:59.035Z,80.04
2022-10-18T16:46:30.377Z,79.30
2022-10-18T16:48:59.006Z,79.45
2022-10-18T16:51:27.674Z,79.29
2022-10-18T16:53:56.654Z,79.24
2022-10-18T16:56:27.192Z,78.90
2022-10-18T16:58:55.735Z,79.29
2022-10-18T17:01:24.961Z,78.70
2022-10-18T17:03:55.510Z,78.98
2022-10-18T17:06:25.882Z,78.25
2022-10-18T17:08:55.494Z,78.57
2022-10-18T17:11:26.243Z,79.18
2022-10-18T17:13:54.787Z,79.33
2022-10-18T17:19:00.084Z,79.48
2022-10-18T17:21:29.411Z,79.02
2022-10-18T17:24:00.690Z,79.36
2022-10-18T17:26:30.322Z,79.20
2022-10-18T17:29:00.674Z,79.70
2022-10-18T17:31:29.539Z,79.35
2022-10-18T17:34:01.917Z,79.45
2022-10-18T17:36:30.938Z,79.31
2022-10-18T17:38:59.609Z,79.27
2022-10-18T17:41:28.388Z,79.30
2022-10-18T17:43:57.385Z,78.93
2022-10-18T17:46:25.749Z,79.12
2022-10-18T17:48:55.123Z,79.56
2022-10-18T17:51:25.169Z,79.58
2022-10-18T17:53:53.553Z,79.92
2022-10-18T17:56:21.923Z,79.82
2022-10-18T17:58:52.030Z,79.88
2022-10-18T18:01:23.183Z,79.78
2022-10-18T18:03:53.672Z,80.10
2022-10-18T18:06:30.843Z,79.99
2022-10-18T18:09:48.790Z,79.97
2022-10-18T18:12:35.660Z,80.11
2022-10-18T18:15:04.498Z,79.96
2022-10-18T18:17:34.508Z,80.55
2022-10-18T18:20:15.465Z,80.89
2022-10-18T18:22:45.205Z,80.58
2022-10-18T18:25:13.796Z,81.02
2022-10-18T18:27:42.258Z,81.40
2022-10-18T18:30:11.458Z,81.73
2022-10-18T18:32:41.474Z,81.33
2022-10-18T18:35:09.894Z,80.98
2022-10-18T18:37:38.429Z,80.35
2022-10-18T18:40:09.707Z,80.66
2022-10-18T18:42:38.154Z,81.26
2022-10-18T18:45:07.654Z,80.72
2022-10-18T18:47:36.376Z,80.27
2022-10-18T18:50:04.997Z,80.55
2022-10-18T18:52:33.676Z,80.47
2022-10-18T18:55:02.369Z,80.45
2022-10-18T18:57:33.351Z,80.15
2022-10-18T19:00:03.308Z,80.39
2022-10-18T19:02:32.782Z,80.58
2022-10-18T19:05:04.384Z,81.02
2022-10-18T19:07:35.050Z,81.38
2022-10-18T19:10:04.054Z,81.29
2022-10-18T19:12:33.892Z,81.80
2022-10-18T19:15:02.329Z,82.02
2022-10-18T19:17:32.137Z,81.47
2022-10-18T19:20:01.345Z,81.69
2022-10-18T19:22:31.176Z,82.15
2022-10-18T19:24:59.635Z,82.21
2022-10-18T19:27:28.134Z,81.87
2022-10-18T19:29:58.141Z,81.47
2022-10-18T19:34:54.989Z,81.92
2022-10-18T19:37:23.438Z,81.88
2022-10-18T19:39:51.966Z,82.09
2022-10-18T19:42:24.239Z,81.91
2022-10-18T19:44:54.937Z,81.55
2022-10-18T19:47:24.750Z,81.37
2022-10-18T19:49:53.968Z,81.15
2022-10-18T19:52:22.538Z,81.91
2022-10-18T19:54:51.063Z,81.54
2022-10-18T19:57:22.194Z,81.00
2022-10-18T19:59:50.705Z,81.37
2022-10-18T20:02:19.192Z,81.54
2022-10-18T20:04:49.089Z,80.80
2022-10-18T20:07:17.584Z,81.60
2022-10-18T20:09:47.345Z,81.55
2022-10-18T20:12:15.776Z,81.53
2022-10-18T20:14:44.244Z,81.58
2022-10-18T20:17:13.740Z,81.19
2022-10-18T20:19:42.210Z,80.39
2022-10-18T20:22:12.112Z,79.97
2022-10-18T20:24:40.577Z,79.75
2022-10-18T20:27:09.122Z,80.36
2022-10-18T20:29:37.544Z,79.62
2022-10-18T20:32:10.786Z,80.06
2022-10-18T20:34:39.146Z,80.27
2022-10-18T20:37:07.584Z,80.06
2022-10-18T20:39:37.317Z,79.88
2022-10-18T20:42:05.719Z,80.29
2022-10-18T20:44:34.199Z,80.63
2022-10-18T20:47:02.615Z,80.49
2022-10-18T20:49:31.145Z,80.40
2022-10-18T20:51:59.475Z,80.24
2022-10-18T20:54:28.047Z,80.68
2022-10-18T20:56:57.804Z,80.70
2022-10-18T20:59:26.217Z,80.99
2022-10-18T21:01:54.563Z,80.86
2022-10-18T21:04:22.975Z,81.92
2022-10-18T21:06:51.388Z,81.99
2022-10-18T21:09:21.013Z,81.68
2022-10-18T21:11:51.099Z,82.37
2022-10-18T21:14:22.677Z,82.65
2022-10-18T21:16:51.996Z,82.50
2022-10-18T21:19:22.380Z,82.97
2022-10-18T21:21:52.421Z,83.03
2022-10-18T21:24:22.192Z,83.21
2022-10-18T21:26:50.630Z,83.51
2022-10-18T21:29:22.550Z,83.58
2022-10-18T21:31:53.583Z,84.35
2022-10-18T21:34:22.049Z,84.81
2022-10-18T21:36:50.548Z,84.71
2022-10-18T21:39:20.673Z,84.77
2022-10-18T21:41:49.275Z,84.71
2022-10-18T21:44:18.243Z,84.86
2022-10-18T21:46:48.048Z,84.43
2022-10-18T21:49:16.811Z,85.17
2022-10-18T21:51:47.014Z,84.77
2022-10-18T21:54:17.357Z,84.58
2022-10-18T21:56:45.973Z,84.13
2022-10-18T21:59:14.929Z,84.28
2022-10-18T22:01:44.763Z,84.36
2022-10-18T22:04:22.492Z,84.01
2022-10-18T22:06:52.023Z,84.02
2022-10-18T22:09:22.417Z,83.62
2022-10-18T22:11:55.793Z,83.26
2022-10-18T22:14:24.421Z,83.88
2022-10-18T22:16:52.859Z,83.71
2022-10-18T22:19:22.678Z,84.00
2022-10-18T22:21:51.088Z,84.44
2022-10-18T22:24:19.502Z,84.43
2022-10-18T22:26:47.967Z,84.65
2022-10-18T22:29:17.949Z,84.31
2022-10-18T22:31:47.786Z,85.00
2022-10-18T22:34:18.111Z,84.82
2022-10-18T22:36:47.926Z,84.37
2022-10-18T22:39:17.017Z,85.29
2022-10-18T22:41:45.656Z,84.84
2022-10-18T22:44:15.362Z,84.76
2022-10-18T22:46:44.365Z,85.12
2022-10-18T22:49:13.133Z,85.06
2022-10-18T22:51:41.793Z,85.35
2022-10-18T22:54:11.713Z,84.91
2022-10-18T22:56:40.142Z,85.33
2022-10-18T22:59:08.740Z,85.15
2022-10-18T23:01:37.290Z,85.22
2022-10-18T23:04:05.855Z,85.16
2022-10-18T23:06:35.992Z,85.10
2022-10-18T23:09:06.818Z,85.03
2022-10-18T23:11:37.485Z,85.40
2022-10-18T23:14:06.966Z,85.14
2022-10-18T23:16:35.317Z,84.99
2022-10-18T23:19:03.697Z,84.45
2022-10-18T23:21:32.094Z,84.53
2022-10-18T23:24:00.435Z,84.79
2022-10-18T23:26:29.269Z,84.54
2022-10-18T23:28:59.136Z,84.19
2022-10-18T23:31:29.008Z,84.49
2022-10-18T23:33:59.218Z,84.71
2022-10-18T23:36:27.800Z,84.04
2022-10-18T23:38:56.622Z,84.10
2022-10-18T23:41:25.166Z,84.42
2022-10-18T23:43:53.579Z,84.49
2022-10-18T23:46:23.512Z,84.21
2022-10-18T23:48:51.980Z,84.49
2022-10-18T23:51:20.452Z,84.39
2022-10-18T23:53:48.876Z,84.52
2022-10-18T23:56:17.882Z,84.81
2022-10-18T23:58:46.723Z,84.23
